sensor_id;sensor_type;location;lat;lon;timestamp;pressure;altitude;pressure_sealevel;temperature;humidity
22647;BME280;11490;42.726;23.268;2023-04-19T00:00:46;94825.34;;;11.44;93.54
22647;BME280;11490;42.726;23.268;2023-04-19T00:03:12;94830.03;;;11.58;93.21
22647;BME280;11490;42.726;23.268;2023-04-19T00:05:38;94814.97;;;11.47;93.35
22647;BME280;11490;42.726;23.268;2023-04-19T00:08:04;94830.28;;;11.57;93.43
22647;BME280;11490;42.726;23.268;2023-04-19T00:10:30;94817.69;;;11.52;92.36
22647;BME280;11490;42.726;23.268;2023-04-19T00:12:55;94824.94;;;11.57;91.84
22647;BME280;11490;42.726;23.268;2023-04-19T00:15:21;94818.69;;;11.46;92.30
22647;BME280;11490;42.726;23.268;2023-04-19T00:17:46;94812.34;;;11.52;92.77
22647;BME280;11490;42.726;23.268;2023-04-19T00:20:12;94811.13;;;11.38;94.40
22647;BME280;11490;42.726;23.268;2023-04-19T00:22:38;94823.31;;;11.56;93.88
22647;BME280;11490;42.726;23.268;2023-04-19T00:25:03;94825.44;;;11.54;94.00
22647;BME280;11490;42.726;23.268;2023-04-19T00:27:29;94800.19;;;11.40;93.92
22647;BME280;11490;42.726;23.268;2023-04-19T00:29:55;94815.06;;;11.57;93.64
22647;BME280;11490;42.726;23.268;2023-04-19T00:32:22;94803.78;;;11.50;93.88
22647;BME280;11490;42.726;23.268;2023-04-19T00:34:47;94806.22;;;11.52;93.30
22647;BME280;11490;42.726;23.268;2023-04-19T00:37:13;94810.50;;;11.53;93.82
22647;BME280;11490;42.726;23.268;2023-04-19T00:39:38;94808.72;;;11.37;94.51
22647;BME280;11490;42.726;23.268;2023-04-19T00:42:04;94799.03;;;11.31;95.08
22647;BME280;11490;42.726;23.268;2023-04-19T00:44:29;94813.03;;;11.16;96.89
22647;BME280;11490;42.726;23.268;2023-04-19T00:46:55;94815.34;;;11.07;97.82
22647;BME280;11490;42.726;23.268;2023-04-19T00:49:22;94803.78;;;11.24;97.09
22647;BME280;11490;42.726;23.268;2023-04-19T00:51:49;94808.13;;;11.30;96.04
22647;BME280;11490;42.726;23.268;2023-04-19T00:54:14;94804.53;;;11.19;97.27
22647;BME280;11490;42.726;23.268;2023-04-19T00:56:41;94797.63;;;11.23;96.38
22647;BME280;11490;42.726;23.268;2023-04-19T00:59:07;94804.50;;;10.92;98.43
22647;BME280;11490;42.726;23.268;2023-04-19T01:01:33;94809.94;;;11.02;97.88
22647;BME280;11490;42.726;23.268;2023-04-19T01:03:59;94778.34;;;10.67;99.41
22647;BME280;11490;42.726;23.268;2023-04-19T01:06:26;94797.00;;;10.89;99.94
22647;BME280;11490;42.726;23.268;2023-04-19T01:08:52;94790.88;;;10.45;100.00
22647;BME280;11490;42.726;23.268;2023-04-19T01:11:18;94804.88;;;10.57;100.00
22647;BME280;11490;42.726;23.268;2023-04-19T01:13:43;94785.66;;;10.55;100.00
22647;BME280;11490;42.726;23.268;2023-04-19T01:16:09;94793.03;;;10.70;100.00
22647;BME280;11490;42.726;23.268;2023-04-19T01:18:34;94774.13;;;10.50;100.00
22647;BME280;11490;42.726;23.268;2023-04-19T01:21:02;94796.75;;;10.69;100.00
22647;BME280;11490;42.726;23.268;2023-04-19T01:23:28;94786.22;;;10.79;100.00
22647;BME280;11490;42.726;23.268;2023-04-19T01:25:53;94796.88;;;10.79;100.00
22647;BME280;11490;42.726;23.268;2023-04-19T01:28:19;94797.38;;;10.76;100.00
22647;BME280;11490;42.726;23.268;2023-04-19T01:30:44;94783.16;;;10.70;100.00
22647;BME280;11490;42.726;23.268;2023-04-19T01:33:09;94794.03;;;10.64;100.00
22647;BME280;11490;42.726;23.268;2023-04-19T01:35:35;94793.16;;;10.80;100.00
22647;BME280;11490;42.726;23.268;2023-04-19T01:38:00;94774.97;;;10.55;100.00
22647;BME280;11490;42.726;23.268;2023-04-19T01:40:26;94799.34;;;10.64;100.00
22647;BME280;11490;42.726;23.268;2023-04-19T01:42:52;94756.25;;;10.28;100.00
22647;BME280;11490;42.726;23.268;2023-04-19T01:45:17;94787.59;;;10.60;100.00
22647;BME280;11490;42.726;23.268;2023-04-19T01:47:43;94787.63;;;10.65;100.00
22647;BME280;11490;42.726;23.268;2023-04-19T01:50:08;94781.16;;;10.61;100.00
22647;BME280;11490;42.726;23.268;2023-04-19T01:52:34;94785.22;;;10.41;100.00
22647;BME280;11490;42.726;23.268;2023-04-19T01:54:59;94782.63;;;10.30;100.00
22647;BME280;11490;42.726;23.268;2023-04-19T01:57:25;94786.06;;;10.25;100.00
22647;BME280;11490;42.726;23.268;2023-04-19T01:59:52;94781.34;;;10.32;100.00
22647;BME280;11490;42.726;23.268;2023-04-19T02:02:17;94784.09;;;10.37;100.00
22647;BME280;11490;42.726;23.268;2023-04-19T02:04:43;94775.53;;;10.35;100.00
22647;BME280;11490;42.726;23.268;2023-04-19T02:07:08;94775.84;;;10.39;100.00
22647;BME280;11490;42.726;23.268;2023-04-19T02:09:35;94790.97;;;10.33;100.00
22647;BME280;11490;42.726;23.268;2023-04-19T02:12:00;94768.03;;;10.32;100.00
22647;BME280;11490;42.726;23.268;2023-04-19T02:14:26;94786.63;;;10.49;100.00
22647;BME280;11490;42.726;23.268;2023-04-19T02:16:51;94794.41;;;10.51;100.00
22647;BME280;11490;42.726;23.268;2023-04-19T02:19:17;94785.63;;;10.33;100.00
22647;BME280;11490;42.726;23.268;2023-04-19T02:21:42;94792.63;;;10.39;100.00
22647;BME280;11490;42.726;23.268;2023-04-19T02:24:07;94775.22;;;10.32;100.00
22647;BME280;11490;42.726;23.268;2023-04-19T02:26:33;94790.06;;;10.45;100.00
22647;BME280;11490;42.726;23.268;2023-04-19T02:28:58;94782.81;;;10.23;100.00
22647;BME280;11490;42.726;23.268;2023-04-19T02:31:24;94763.94;;;10.08;100.00
22647;BME280;11490;42.726;23.268;2023-04-19T02:33:49;94768.44;;;10.24;100.00
22647;BME280;11490;42.726;23.268;2023-04-19T02:36:15;94759.22;;;10.15;100.00
22647;BME280;11490;42.726;23.268;2023-04-19T02:38:40;94780.53;;;10.32;100.00
22647;BME280;11490;42.726;23.268;2023-04-19T02:41:05;94764.72;;;10.09;100.00
22647;BME280;11490;42.726;23.268;2023-04-19T02:43:31;94767.34;;;10.03;100.00
22647;BME280;11490;42.726;23.268;2023-04-19T02:45:57;94776.53;;;10.29;100.00
22647;BME280;11490;42.726;23.268;2023-04-19T02:48:22;94762.00;;;10.20;100.00
22647;BME280;11490;42.726;23.268;2023-04-19T02:50:47;94766.06;;;10.06;100.00
22647;BME280;11490;42.726;23.268;2023-04-19T02:53:13;94763.84;;;10.03;100.00
22647;BME280;11490;42.726;23.268;2023-04-19T02:55:38;94763.34;;;10.23;100.00
22647;BME280;11490;42.726;23.268;2023-04-19T02:58:04;94770.69;;;10.16;100.00
22647;BME280;11490;42.726;23.268;2023-04-19T03:00:29;94764.56;;;10.32;100.00
22647;BME280;11490;42.726;23.268;2023-04-19T03:02:55;94769.47;;;10.40;100.00
22647;BME280;11490;42.726;23.268;2023-04-19T03:05:22;94763.97;;;10.30;100.00
22647;BME280;11490;42.726;23.268;2023-04-19T03:07:47;94741.31;;;10.27;100.00
22647;BME280;11490;42.726;23.268;2023-04-19T03:10:13;94776.66;;;10.39;100.00
22647;BME280;11490;42.726;23.268;2023-04-19T03:12:38;94766.69;;;10.13;100.00
22647;BME280;11490;42.726;23.268;2023-04-19T03:15:04;94778.25;;;10.19;100.00
22647;BME280;11490;42.726;23.268;2023-04-19T03:17:30;94769.59;;;10.12;100.00
22647;BME280;11490;42.726;23.268;2023-04-19T03:19:56;94774.59;;;10.08;100.00
22647;BME280;11490;42.726;23.268;2023-04-19T03:22:21;94770.38;;;10.12;100.00
22647;BME280;11490;42.726;23.268;2023-04-19T03:24:47;94762.03;;;9.87;100.00
22647;BME280;11490;42.726;23.268;2023-04-19T03:27:12;94764.75;;;9.92;100.00
22647;BME280;11490;42.726;23.268;2023-04-19T03:29:37;94770.50;;;9.84;100.00
22647;BME280;11490;42.726;23.268;2023-04-19T03:32:03;94764.75;;;9.92;100.00
22647;BME280;11490;42.726;23.268;2023-04-19T03:34:28;94762.25;;;10.02;100.00
22647;BME280;11490;42.726;23.268;2023-04-19T03:36:54;94770.25;;;10.02;100.00
22647;BME280;11490;42.726;23.268;2023-04-19T03:39:20;94767.50;;;9.97;100.00
22647;BME280;11490;42.726;23.268;2023-04-19T03:41:45;94772.09;;;9.85;100.00
22647;BME280;11490;42.726;23.268;2023-04-19T03:44:10;94773.31;;;9.94;100.00
22647;BME280;11490;42.726;23.268;2023-04-19T03:46:36;94768.00;;;9.94;100.00
22647;BME280;11490;42.726;23.268;2023-04-19T03:49:01;94766.72;;;9.63;100.00
22647;BME280;11490;42.726;23.268;2023-04-19T03:51:27;94761.38;;;9.80;100.00
22647;BME280;11490;42.726;23.268;2023-04-19T03:53:52;94767.34;;;9.70;100.00
22647;BME280;11490;42.726;23.268;2023-04-19T03:56:17;94765.44;;;9.65;100.00
22647;BME280;11490;42.726;23.268;2023-04-19T03:58:43;94759.78;;;9.62;100.00
22647;BME280;11490;42.726;23.268;2023-04-19T04:01:26;94754.91;;;9.76;100.00
22647;BME280;11490;42.726;23.268;2023-04-19T04:03:52;94757.34;;;9.77;100.00
22647;BME280;11490;42.726;23.268;2023-04-19T04:06:17;94771.69;;;9.93;100.00
22647;BME280;11490;42.726;23.268;2023-04-19T04:08:43;94770.09;;;9.92;100.00
22647;BME280;11490;42.726;23.268;2023-04-19T04:11:08;94767.34;;;9.53;100.00
22647;BME280;11490;42.726;23.268;2023-04-19T04:13:33;94774.63;;;9.75;100.00
22647;BME280;11490;42.726;23.268;2023-04-19T04:15:59;94768.66;;;9.68;100.00
22647;BME280;11490;42.726;23.268;2023-04-19T04:18:24;94777.78;;;9.88;100.00
22647;BME280;11490;42.726;23.268;2023-04-19T04:20:51;94779.69;;;9.93;100.00
22647;BME280;11490;42.726;23.268;2023-04-19T04:23:16;94764.69;;;9.70;100.00
22647;BME280;11490;42.726;23.268;2023-04-19T04:25:41;94757.69;;;9.81;100.00
22647;BME280;11490;42.726;23.268;2023-04-19T04:28:07;94778.81;;;9.87;100.00
22647;BME280;11490;42.726;23.268;2023-04-19T04:30:32;94788.81;;;9.97;100.00
22647;BME280;11490;42.726;23.268;2023-04-19T04:32:58;94784.38;;;9.52;100.00
22647;BME280;11490;42.726;23.268;2023-04-19T04:35:24;94789.28;;;9.60;100.00
22647;BME280;11490;42.726;23.268;2023-04-19T04:37:50;94793.69;;;9.67;100.00
22647;BME280;11490;42.726;23.268;2023-04-19T04:40:18;94782.94;;;9.61;100.00
22647;BME280;11490;42.726;23.268;2023-04-19T04:42:43;94784.66;;;9.68;100.00
22647;BME280;11490;42.726;23.268;2023-04-19T04:45:09;94778.88;;;9.76;100.00
22647;BME280;11490;42.726;23.268;2023-04-19T04:47:35;94789.88;;;9.79;100.00
22647;BME280;11490;42.726;23.268;2023-04-19T04:50:02;94783.03;;;9.67;100.00
22647;BME280;11490;42.726;23.268;2023-04-19T04:52:28;94782.28;;;9.71;100.00
22647;BME280;11490;42.726;23.268;2023-04-19T04:54:53;94782.06;;;9.73;100.00
22647;BME280;11490;42.726;23.268;2023-04-19T04:57:18;94780.59;;;9.82;100.00
22647;BME280;11490;42.726;23.268;2023-04-19T04:59:44;94782.84;;;9.90;100.00
22647;BME280;11490;42.726;23.268;2023-04-19T05:02:12;94787.38;;;9.73;100.00
22647;BME280;11490;42.726;23.268;2023-04-19T05:04:38;94794.56;;;9.89;100.00
22647;BME280;11490;42.726;23.268;2023-04-19T05:07:03;94799.25;;;9.82;100.00
22647;BME280;11490;42.726;23.268;2023-04-19T05:09:28;94799.66;;;9.74;100.00
22647;BME280;11490;42.726;23.268;2023-04-19T05:11:54;94795.91;;;9.91;100.00
22647;BME280;11490;42.726;23.268;2023-04-19T05:14:19;94794.56;;;9.89;100.00
22647;BME280;11490;42.726;23.268;2023-04-19T05:16:45;94808.19;;;9.92;100.00
22647;BME280;11490;42.726;23.268;2023-04-19T05:19:10;94808.69;;;10.06;100.00
22647;BME280;11490;42.726;23.268;2023-04-19T05:21:36;94797.03;;;10.12;100.00
22647;BME280;11490;42.726;23.268;2023-04-19T05:24:01;94808.66;;;10.23;100.00
22647;BME280;11490;42.726;23.268;2023-04-19T05:26:27;94787.66;;;10.26;100.00
22647;BME280;11490;42.726;23.268;2023-04-19T05:28:52;94799.59;;;10.07;100.00
22647;BME280;11490;42.726;23.268;2023-04-19T05:31:17;94797.94;;;10.01;100.00
22647;BME280;11490;42.726;23.268;2023-04-19T05:33:45;94807.38;;;10.25;100.00
22647;BME280;11490;42.726;23.268;2023-04-19T05:36:10;94807.84;;;10.22;100.00
22647;BME280;11490;42.726;23.268;2023-04-19T05:38:36;94799.78;;;10.17;100.00
22647;BME280;11490;42.726;23.268;2023-04-19T05:41:02;94805.84;;;10.29;100.00
22647;BME280;11490;42.726;23.268;2023-04-19T05:43:28;94790.41;;;10.31;100.00
22647;BME280;11490;42.726;23.268;2023-04-19T05:45:53;94802.31;;;10.46;100.00
22647;BME280;11490;42.726;23.268;2023-04-19T05:48:18;94811.25;;;10.56;100.00
22647;BME280;11490;42.726;23.268;2023-04-19T05:50:44;94800.78;;;10.50;100.00
22647;BME280;11490;42.726;23.268;2023-04-19T05:53:09;94794.84;;;10.64;100.00
22647;BME280;11490;42.726;23.268;2023-04-19T05:55:35;94792.84;;;10.76;100.00
22647;BME280;11490;42.726;23.268;2023-04-19T05:58:00;94811.16;;;10.68;100.00
22647;BME280;11490;42.726;23.268;2023-04-19T06:00:25;94799.09;;;10.87;100.00
22647;BME280;11490;42.726;23.268;2023-04-19T06:02:52;94793.81;;;10.92;100.00
22647;BME280;11490;42.726;23.268;2023-04-19T06:05:17;94804.16;;;11.10;100.00
22647;BME280;11490;42.726;23.268;2023-04-19T06:07:43;94805.19;;;11.04;100.00
22647;BME280;11490;42.726;23.268;2023-04-19T06:10:39;94786.81;;;10.86;100.00
22647;BME280;11490;42.726;23.268;2023-04-19T06:13:07;94788.31;;;10.77;99.94
22647;BME280;11490;42.726;23.268;2023-04-19T06:15:32;94782.09;;;10.93;99.88
22647;BME280;11490;42.726;23.268;2023-04-19T06:17:57;94793.91;;;10.97;99.63
22647;BME280;11490;42.726;23.268;2023-04-19T06:20:26;94807.41;;;11.12;100.00
22647;BME280;11490;42.726;23.268;2023-04-19T06:22:51;94788.47;;;11.14;100.00
22647;BME280;11490;42.726;23.268;2023-04-19T06:25:17;94789.47;;;11.35;98.70
22647;BME280;11490;42.726;23.268;2023-04-19T06:27:42;94797.97;;;11.58;97.31
22647;BME280;11490;42.726;23.268;2023-04-19T06:30:08;94799.09;;;11.36;97.17
22647;BME280;11490;42.726;23.268;2023-04-19T06:32:33;94809.81;;;11.41;97.42
22647;BME280;11490;42.726;23.268;2023-04-19T06:34:58;94806.00;;;11.32;97.78
22647;BME280;11490;42.726;23.268;2023-04-19T06:37:24;94805.28;;;11.41;97.32
22647;BME280;11490;42.726;23.268;2023-04-19T06:39:49;94799.09;;;11.36;97.34
22647;BME280;11490;42.726;23.268;2023-04-19T06:42:15;94804.91;;;11.28;98.11
22647;BME280;11490;42.726;23.268;2023-04-19T06:44:42;94805.78;;;11.11;98.58
22647;BME280;11490;42.726;23.268;2023-04-19T06:47:08;94812.38;;;11.31;97.20
22647;BME280;11490;42.726;23.268;2023-04-19T06:49:40;94827.00;;;11.23;98.60
22647;BME280;11490;42.726;23.268;2023-04-19T06:52:05;94826.69;;;11.46;99.01
22647;BME280;11490;42.726;23.268;2023-04-19T06:58:05;94813.84;;;11.16;98.83
22647;BME280;11490;42.726;23.268;2023-04-19T07:00:34;94818.97;;;11.45;97.90
22647;BME280;11490;42.726;23.268;2023-04-19T07:03:22;94808.88;;;11.25;97.66
22647;BME280;11490;42.726;23.268;2023-04-19T07:05:53;94833.81;;;11.36;96.94
22647;BME280;11490;42.726;23.268;2023-04-19T07:08:21;94783.88;;;11.09;96.77
22647;BME280;11490;42.726;23.268;2023-04-19T07:10:48;94779.59;;;11.08;97.49
22647;BME280;11490;42.726;23.268;2023-04-19T07:13:14;94819.41;;;11.37;96.67
22647;BME280;11490;42.726;23.268;2023-04-19T07:15:39;94798.38;;;11.18;95.77
22647;BME280;11490;42.726;23.268;2023-04-19T07:18:08;94814.75;;;11.54;96.97
22647;BME280;11490;42.726;23.268;2023-04-19T07:24:08;94790.22;;;11.57;96.07
22647;BME280;11490;42.726;23.268;2023-04-19T07:26:37;94775.78;;;11.53;94.65
22647;BME280;11490;42.726;23.268;2023-04-19T07:29:37;94823.81;;;11.75;94.05
22647;BME280;11490;42.726;23.268;2023-04-19T07:32:08;94809.63;;;11.74;94.14
22647;BME280;11490;42.726;23.268;2023-04-19T07:48:19;94800.84;;;11.79;94.55
22647;BME280;11490;42.726;23.268;2023-04-19T07:51:15;94843.97;;;11.92;95.07
22647;BME280;11490;42.726;23.268;2023-04-19T07:53:58;94808.94;;;11.84;94.68
22647;BME280;11490;42.726;23.268;2023-04-19T07:56:42;94820.84;;;12.08;93.58
22647;BME280;11490;42.726;23.268;2023-04-19T08:11:36;94793.91;;;12.15;91.40
22647;BME280;11490;42.726;23.268;2023-04-19T08:14:04;94813.75;;;12.24;90.20
22647;BME280;11490;42.726;23.268;2023-04-19T08:16:30;94814.41;;;12.41;90.04
22647;BME280;11490;42.726;23.268;2023-04-19T08:19:04;94792.88;;;12.21;91.31
22647;BME280;11490;42.726;23.268;2023-04-19T08:21:30;94834.81;;;12.57;90.12
22647;BME280;11490;42.726;23.268;2023-04-19T08:23:55;94840.78;;;12.69;90.01
22647;BME280;11490;42.726;23.268;2023-04-19T08:26:23;94810.06;;;12.30;90.38
22647;BME280;11490;42.726;23.268;2023-04-19T08:28:49;94843.47;;;12.75;89.93
22647;BME280;11490;42.726;23.268;2023-04-19T08:31:16;94803.34;;;12.75;88.12
22647;BME280;11490;42.726;23.268;2023-04-19T08:33:44;94834.50;;;13.01;88.12
22647;BME280;11490;42.726;23.268;2023-04-19T08:36:10;94817.41;;;13.07;87.84
22647;BME280;11490;42.726;23.268;2023-04-19T08:38:35;94822.22;;;13.10;86.82
22647;BME280;11490;42.726;23.268;2023-04-19T08:41:03;94830.06;;;13.32;87.16
22647;BME280;11490;42.726;23.268;2023-04-19T08:43:29;94819.88;;;13.19;87.83
22647;BME280;11490;42.726;23.268;2023-04-19T08:46:10;94770.78;;;12.98;86.29
22647;BME280;11490;42.726;23.268;2023-04-19T08:48:36;94804.09;;;13.27;86.57
22647;BME280;11490;42.726;23.268;2023-04-19T08:51:07;94772.47;;;13.19;86.57
22647;BME280;11490;42.726;23.268;2023-04-19T08:57:13;94829.34;;;13.52;86.39
22647;BME280;11490;42.726;23.268;2023-04-19T09:00:05;94784.31;;;13.64;84.75
22647;BME280;11490;42.726;23.268;2023-04-19T09:03:08;94818.69;;;13.92;84.42
22647;BME280;11490;42.726;23.268;2023-04-19T09:05:42;94791.31;;;13.95;82.63
22647;BME280;11490;42.726;23.268;2023-04-19T09:08:26;94804.97;;;14.29;81.52
22647;BME280;11490;42.726;23.268;2023-04-19T09:11:16;94822.94;;;14.59;81.59
22647;BME280;11490;42.726;23.268;2023-04-19T09:13:42;94807.25;;;14.96;80.10
22647;BME280;11490;42.726;23.268;2023-04-19T09:16:22;94795.41;;;15.02;78.05
22647;BME280;11490;42.726;23.268;2023-04-19T09:18:56;94796.88;;;15.29;76.38
22647;BME280;11490;42.726;23.268;2023-04-19T09:21:27;94802.97;;;15.89;77.13
22647;BME280;11490;42.726;23.268;2023-04-19T09:24:30;94796.09;;;15.77;73.57
22647;BME280;11490;42.726;23.268;2023-04-19T09:27:04;94780.72;;;15.34;74.55
22647;BME280;11490;42.726;23.268;2023-04-19T09:29:30;94807.94;;;15.76;74.87
22647;BME280;11490;42.726;23.268;2023-04-19T09:31:57;94797.59;;;15.89;74.67
22647;BME280;11490;42.726;23.268;2023-04-19T09:34:25;94792.03;;;16.14;75.60
22647;BME280;11490;42.726;23.268;2023-04-19T09:36:53;94802.47;;;16.49;73.65
22647;BME280;11490;42.726;23.268;2023-04-19T09:39:35;94815.41;;;16.47;71.72
22647;BME280;11490;42.726;23.268;2023-04-19T09:42:01;94781.78;;;16.16;70.79
22647;BME280;11490;42.726;23.268;2023-04-19T09:47:39;94773.53;;;15.73;71.74
22647;BME280;11490;42.726;23.268;2023-04-19T09:50:08;94807.09;;;16.15;72.19
22647;BME280;11490;42.726;23.268;2023-04-19T09:52:35;94779.09;;;16.16;68.48
22647;BME280;11490;42.726;23.268;2023-04-19T09:55:14;94784.63;;;16.01;71.71
22647;BME280;11490;42.726;23.268;2023-04-19T09:57:41;94769.28;;;15.67;73.06
22647;BME280;11490;42.726;23.268;2023-04-19T10:00:09;94798.28;;;16.09;72.66
22647;BME280;11490;42.726;23.268;2023-04-19T10:02:41;94743.94;;;15.78;70.50
22647;BME280;11490;42.726;23.268;2023-04-19T10:05:09;94766.78;;;16.10;71.33
22647;BME280;11490;42.726;23.268;2023-04-19T10:07:36;94784.13;;;16.51;69.93
22647;BME280;11490;42.726;23.268;2023-04-19T10:10:02;94800.22;;;16.62;69.18
22647;BME280;11490;42.726;23.268;2023-04-19T10:12:30;94778.56;;;16.14;70.03
22647;BME280;11490;42.726;23.268;2023-04-19T10:14:56;94781.38;;;16.33;69.64
22647;BME280;11490;42.726;23.268;2023-04-19T10:17:23;94768.38;;;16.11;67.90
22647;BME280;11490;42.726;23.268;2023-04-19T10:19:58;94784.69;;;15.91;69.53
22647;BME280;11490;42.726;23.268;2023-04-19T10:22:26;94766.94;;;15.90;71.09
22647;BME280;11490;42.726;23.268;2023-04-19T10:25:15;94778.34;;;16.39;72.05
22647;BME280;11490;42.726;23.268;2023-04-19T10:27:42;94788.09;;;16.64;70.12
22647;BME280;11490;42.726;23.268;2023-04-19T10:30:19;94762.56;;;16.57;69.12
22647;BME280;11490;42.726;23.268;2023-04-19T10:32:50;94775.28;;;17.22;70.98
22647;BME280;11490;42.726;23.268;2023-04-19T10:35:27;94778.72;;;17.47;67.36
22647;BME280;11490;42.726;23.268;2023-04-19T10:38:03;94767.94;;;17.84;64.82
22647;BME280;11490;42.726;23.268;2023-04-19T10:43:34;94748.91;;;17.94;64.40
22647;BME280;11490;42.726;23.268;2023-04-19T10:46:05;94736.16;;;17.81;63.51
22647;BME280;11490;42.726;23.268;2023-04-19T10:48:32;94764.56;;;17.92;64.93
22647;BME280;11490;42.726;23.268;2023-04-19T10:51:04;94768.22;;;18.01;64.87
22647;BME280;11490;42.726;23.268;2023-04-19T10:57:09;94759.25;;;18.20;63.04
22647;BME280;11490;42.726;23.268;2023-04-19T10:59:36;94756.13;;;18.45;62.90
22647;BME280;11490;42.726;23.268;2023-04-19T11:02:04;94754.47;;;18.17;61.98
22647;BME280;11490;42.726;23.268;2023-04-19T11:07:01;94747.38;;;17.88;65.05
22647;BME280;11490;42.726;23.268;2023-04-19T11:09:31;94748.88;;;17.62;61.83
22647;BME280;11490;42.726;23.268;2023-04-19T11:12:03;94746.34;;;17.84;61.84
22647;BME280;11490;42.726;23.268;2023-04-19T11:14:31;94737.03;;;17.20;63.29
22647;BME280;11490;42.726;23.268;2023-04-19T11:16:58;94735.28;;;17.29;64.07
22647;BME280;11490;42.726;23.268;2023-04-19T11:19:24;94703.31;;;17.23;64.82
22647;BME280;11490;42.726;23.268;2023-04-19T11:21:49;94714.22;;;17.50;64.98
22647;BME280;11490;42.726;23.268;2023-04-19T11:24:15;94700.00;;;17.45;61.95
22647;BME280;11490;42.726;23.268;2023-04-19T11:26:43;94703.78;;;17.81;60.80
22647;BME280;11490;42.726;23.268;2023-04-19T11:29:09;94712.38;;;17.83;60.36
22647;BME280;11490;42.726;23.268;2023-04-19T11:31:34;94708.41;;;17.81;62.10
22647;BME280;11490;42.726;23.268;2023-04-19T11:34:01;94716.41;;;17.86;62.52
22647;BME280;11490;42.726;23.268;2023-04-19T11:36:27;94727.56;;;18.12;59.78
22647;BME280;11490;42.726;23.268;2023-04-19T11:38:53;94726.78;;;18.25;60.62
22647;BME280;11490;42.726;23.268;2023-04-19T11:41:19;94704.44;;;18.05;61.26
22647;BME280;11490;42.726;23.268;2023-04-19T11:43:45;94725.97;;;17.78;60.85
22647;BME280;11490;42.726;23.268;2023-04-19T11:46:12;94731.44;;;18.05;59.27
22647;BME280;11490;42.726;23.268;2023-04-19T11:48:38;94730.56;;;18.56;58.51
22647;BME280;11490;42.726;23.268;2023-04-19T11:51:05;94729.38;;;18.62;57.82
22647;BME280;11490;42.726;23.268;2023-04-19T11:53:31;94711.94;;;18.96;57.35
22647;BME280;11490;42.726;23.268;2023-04-19T11:56:07;94699.72;;;17.97;59.86
22647;BME280;11490;42.726;23.268;2023-04-19T11:58:43;94704.94;;;18.67;58.29
22647;BME280;11490;42.726;23.268;2023-04-19T12:01:11;94712.16;;;18.86;57.28
22647;BME280;11490;42.726;23.268;2023-04-19T12:03:44;94698.72;;;18.53;58.77
22647;BME280;11490;42.726;23.268;2023-04-19T12:06:12;94715.94;;;18.84;57.25
22647;BME280;11490;42.726;23.268;2023-04-19T12:08:41;94705.28;;;18.66;58.73
22647;BME280;11490;42.726;23.268;2023-04-19T12:11:07;94706.31;;;18.51;59.89
22647;BME280;11490;42.726;23.268;2023-04-19T12:13:33;94705.50;;;18.51;59.47
22647;BME280;11490;42.726;23.268;2023-04-19T12:15:59;94711.41;;;18.25;60.26
22647;BME280;11490;42.726;23.268;2023-04-19T12:18:25;94694.84;;;17.99;61.50
22647;BME280;11490;42.726;23.268;2023-04-19T12:20:51;94707.66;;;18.07;62.26
22647;BME280;11490;42.726;23.268;2023-04-19T12:23:18;94677.53;;;17.87;62.70
22647;BME280;11490;42.726;23.268;2023-04-19T12:25:47;94702.06;;;18.04;62.01
22647;BME280;11490;42.726;23.268;2023-04-19T12:28:14;94694.00;;;17.85;62.63
22647;BME280;11490;42.726;23.268;2023-04-19T12:30:42;94697.75;;;17.71;63.26
22647;BME280;11490;42.726;23.268;2023-04-19T12:33:08;94661.06;;;17.18;64.41
22647;BME280;11490;42.726;23.268;2023-04-19T12:35:34;94689.19;;;17.82;65.16
22647;BME280;11490;42.726;23.268;2023-04-19T12:38:00;94676.88;;;18.08;63.94
22647;BME280;11490;42.726;23.268;2023-04-19T12:40:27;94687.09;;;18.12;62.55
22647;BME280;11490;42.726;23.268;2023-04-19T12:42:53;94666.63;;;17.78;59.88
22647;BME280;11490;42.726;23.268;2023-04-19T12:45:19;94670.66;;;17.94;61.93
22647;BME280;11490;42.726;23.268;2023-04-19T12:47:46;94674.44;;;17.93;61.49
22647;BME280;11490;42.726;23.268;2023-04-19T12:50:13;94706.66;;;18.03;61.55
22647;BME280;11490;42.726;23.268;2023-04-19T12:52:45;94683.84;;;17.45;62.83
22647;BME280;11490;42.726;23.268;2023-04-19T12:55:11;94689.97;;;16.94;65.90
22647;BME280;11490;42.726;23.268;2023-04-19T12:57:36;94691.69;;;16.85;68.15
22647;BME280;11490;42.726;23.268;2023-04-19T13:00:01;94712.19;;;16.81;65.18
22647;BME280;11490;42.726;23.268;2023-04-19T13:02:29;94702.47;;;16.37;65.64
22647;BME280;11490;42.726;23.268;2023-04-19T13:04:54;94706.81;;;16.33;67.02
22647;BME280;11490;42.726;23.268;2023-04-19T13:07:20;94698.72;;;16.09;67.17
22647;BME280;11490;42.726;23.268;2023-04-19T13:09:45;94719.47;;;16.04;68.44
22647;BME280;11490;42.726;23.268;2023-04-19T13:12:10;94724.78;;;15.80;68.46
22647;BME280;11490;42.726;23.268;2023-04-19T13:14:36;94727.06;;;15.68;70.13
22647;BME280;11490;42.726;23.268;2023-04-19T13:17:01;94678.47;;;15.20;71.19
22647;BME280;11490;42.726;23.268;2023-04-19T13:19:32;94713.16;;;15.17;71.48
22647;BME280;11490;42.726;23.268;2023-04-19T13:21:57;94719.69;;;14.95;71.96
22647;BME280;11490;42.726;23.268;2023-04-19T13:24:25;94705.84;;;15.22;71.45
22647;BME280;11490;42.726;23.268;2023-04-19T13:31:00;94677.38;;;15.21;71.43
22647;BME280;11490;42.726;23.268;2023-04-19T13:37:06;94705.81;;;15.27;71.16
22647;BME280;11490;42.726;23.268;2023-04-19T13:39:57;94666.47;;;15.02;71.36
22647;BME280;11490;42.726;23.268;2023-04-19T13:49:08;94689.13;;;14.91;73.14
22647;BME280;11490;42.726;23.268;2023-04-19T13:51:56;94704.06;;;14.48;74.58
22647;BME280;11490;42.726;23.268;2023-04-19T13:54:53;94700.06;;;14.36;76.48